createdAt,value
2023-04-16T00:00:11.954Z,8.21
2023-04-16T00:02:42.752Z,8.22
2023-04-16T00:05:12.921Z,8.09
2023-04-16T00:07:43.379Z,8.03
2023-04-16T00:10:14.199Z,7.93
2023-04-16T00:12:44.303Z,7.93
2023-04-16T00:15:14.822Z,7.91
2023-04-16T00:17:45.278Z,7.87
2023-04-16T00:20:16.019Z,7.80
2023-04-16T00:22:46.471Z,7.86
2023-04-16T00:25:16.844Z,7.78
2023-04-16T00:27:47.018Z,7.81
2023-04-16T00:30:17.035Z,7.95
2023-04-16T00:32:47.945Z,7.92
2023-04-16T00:35:18.160Z,7.90
2023-04-16T00:37:48.840Z,7.94
2023-04-16T00:40:18.889Z,8.00
2023-04-16T00:42:49.253Z,7.74
2023-04-16T00:45:20.167Z,7.96
2023-04-16T00:47:51.014Z,8.05
2023-04-16T00:50:21.753Z,8.07
2023-04-16T00:52:52.365Z,8.05
2023-04-16T00:55:22.675Z,8.04
2023-04-16T00:57:52.713Z,7.94
2023-04-16T01:00:23.468Z,7.83
2023-04-16T01:02:53.970Z,8.06
2023-04-16T01:05:24.198Z,8.00
2023-04-16T01:07:54.315Z,7.72
2023-04-16T01:10:24.834Z,8.00
2023-04-16T01:12:54.810Z,8.08
2023-04-16T01:15:24.873Z,8.01
2023-04-16T01:17:55.403Z,7.94
2023-04-16T01:20:25.833Z,7.92
2023-04-16T01:22:56.569Z,7.98
2023-04-16T01:25:27.005Z,8.02
2023-04-16T01:27:57.536Z,8.04
2023-04-16T01:30:27.738Z,8.08
2023-04-16T01:32:58.323Z,8.05
2023-04-16T01:35:28.445Z,7.99
2023-04-16T01:37:59.121Z,8.03
2023-04-16T01:40:29.370Z,8.12
2023-04-16T01:42:59.288Z,8.13
2023-04-16T01:45:29.801Z,8.15
2023-04-16T01:48:00.018Z,8.11
2023-04-16T01:50:30.155Z,7.75
2023-04-16T01:53:00.213Z,7.92
2023-04-16T01:55:30.921Z,7.69
2023-04-16T01:58:00.971Z,7.77
2023-04-16T02:00:31.325Z,7.88
2023-04-16T02:03:01.913Z,7.78
2023-04-16T02:05:31.836Z,7.70
2023-04-16T02:08:02.635Z,7.80
2023-04-16T02:10:33.447Z,7.73
2023-04-16T02:13:03.686Z,7.46
2023-04-16T02:15:34.262Z,7.55
2023-04-16T02:18:04.648Z,7.20
2023-04-16T02:20:34.671Z,7.25
2023-04-16T02:23:05.267Z,7.20
2023-04-16T02:25:35.781Z,7.13
2023-04-16T02:28:06.102Z,7.01
2023-04-16T02:30:36.822Z,6.99
2023-04-16T02:33:07.599Z,7.00
2023-04-16T02:35:37.940Z,7.07
2023-04-16T02:38:08.691Z,7.26
2023-04-16T02:40:38.681Z,7.11
2023-04-16T02:43:09.327Z,7.06
2023-04-16T02:45:39.567Z,7.24
2023-04-16T02:48:09.939Z,7.21
2023-04-16T02:50:40.403Z,7.18
2023-04-16T02:53:10.715Z,7.07
2023-04-16T02:55:41.498Z,7.13
2023-04-16T02:58:11.981Z,7.23
2023-04-16T03:00:42.513Z,7.18
2023-04-16T03:03:13.101Z,7.03
2023-04-16T03:05:43.509Z,6.99
2023-04-16T03:08:13.777Z,6.97
2023-04-16T03:10:44.563Z,6.94
2023-04-16T03:13:14.819Z,6.83
2023-04-16T03:15:45.533Z,6.68
2023-04-16T03:18:16.454Z,6.66
2023-04-16T03:20:46.578Z,6.52
2023-04-16T03:23:17.379Z,6.57
2023-04-16T03:25:47.577Z,6.72
2023-04-16T03:28:17.916Z,6.69
2023-04-16T03:30:47.989Z,6.55
2023-04-16T03:33:18.386Z,6.59
2023-04-16T03:35:48.689Z,6.40
2023-04-16T03:38:19.515Z,6.49
2023-04-16T03:40:49.711Z,6.40
2023-04-16T03:43:20.248Z,6.31
2023-04-16T03:45:50.487Z,6.28
2023-04-16T03:48:21.432Z,6.38
2023-04-16T03:50:51.569Z,6.44
2023-04-16T03:53:21.861Z,6.44
2023-04-16T03:55:51.892Z,6.06
2023-04-16T03:58:22.265Z,6.31
2023-04-16T04:00:53.129Z,6.48
2023-04-16T04:03:23.360Z,6.52
2023-04-16T04:05:53.715Z,6.61
2023-04-16T04:08:23.935Z,6.46
2023-04-16T04:10:54.392Z,6.56
2023-04-16T04:13:24.570Z,6.55
2023-04-16T04:15:54.784Z,6.50
2023-04-16T04:18:25.580Z,6.43
2023-04-16T04:20:56.392Z,6.46
2023-04-16T04:23:27.230Z,6.54
2023-04-16T04:25:58.008Z,6.45
2023-04-16T04:28:28.704Z,6.50
2023-04-16T04:30:59.237Z,6.27
2023-04-16T04:33:29.534Z,6.21
2023-04-16T04:35:59.806Z,6.26
2023-04-16T04:38:30.473Z,6.26
2023-04-16T04:41:00.601Z,6.35
2023-04-16T04:43:31.336Z,6.35
2023-04-16T04:46:02.037Z,6.24
2023-04-16T04:48:32.458Z,6.26
2023-04-16T04:51:04.755Z,6.43
2023-04-16T04:53:33.057Z,6.35
2023-04-16T04:56:12.443Z,6.54
2023-04-16T04:58:33.994Z,6.55
2023-04-16T05:01:04.824Z,6.65
2023-04-16T05:03:35.253Z,6.63
2023-04-16T05:06:05.819Z,6.66
2023-04-16T05:08:36.460Z,6.68
2023-04-16T05:11:06.627Z,6.72
2023-04-16T05:13:37.241Z,6.78
2023-04-16T05:16:07.321Z,6.82
2023-04-16T05:18:38.005Z,6.88
2023-04-16T05:21:08.728Z,6.97
2023-04-16T05:23:39.138Z,7.05
2023-04-16T05:26:09.638Z,7.17
2023-04-16T05:28:39.815Z,7.24
2023-04-16T05:31:10.530Z,7.30
2023-04-16T05:33:40.611Z,7.35
2023-04-16T05:36:11.256Z,7.39
2023-04-16T05:38:41.613Z,7.42
2023-04-16T05:41:12.062Z,7.46
2023-04-16T05:43:42.926Z,7.48
2023-04-16T05:46:13.204Z,7.50
2023-04-16T05:48:43.355Z,7.50
2023-04-16T05:51:14.214Z,7.48
2023-04-16T05:53:44.731Z,7.48
2023-04-16T05:56:14.850Z,7.48
2023-04-16T05:58:45.210Z,7.50
2023-04-16T06:01:16.211Z,7.35
2023-04-16T06:03:46.325Z,7.55
2023-04-16T06:06:16.962Z,7.58
2023-04-16T06:08:47.323Z,7.50
2023-04-16T06:11:17.384Z,7.51
2023-04-16T06:13:47.723Z,7.53
2023-04-16T06:16:17.844Z,7.53
2023-04-16T06:18:48.150Z,7.53
2023-04-16T06:21:18.797Z,7.59
2023-04-16T06:23:49.609Z,7.56
2023-04-16T06:26:20.132Z,7.58
2023-04-16T06:28:50.952Z,7.61
2023-04-16T06:31:21.261Z,7.64
2023-04-16T06:33:51.776Z,7.58
2023-04-16T06:36:22.104Z,7.59
2023-04-16T06:38:52.835Z,7.56
2023-04-16T06:41:23.062Z,7.66
2023-04-16T06:43:53.909Z,7.74
2023-04-16T06:46:24.611Z,7.81
2023-04-16T06:48:54.644Z,7.79
2023-04-16T06:51:24.681Z,7.83
2023-04-16T06:53:55.588Z,7.88
2023-04-16T06:56:25.706Z,7.94
2023-04-16T06:58:56.264Z,7.96
2023-04-16T07:01:26.329Z,7.95
2023-04-16T07:03:56.740Z,7.90
2023-04-16T07:06:26.667Z,7.97
2023-04-16T07:08:57.295Z,7.97
2023-04-16T07:11:27.736Z,8.03
2023-04-16T07:13:58.290Z,8.10
2023-04-16T07:16:28.956Z,7.99
2023-04-16T07:18:59.447Z,8.04
2023-04-16T07:21:30.032Z,8.04
2023-04-16T07:24:00.114Z,7.87
2023-04-16T07:26:30.539Z,7.70
2023-04-16T07:29:01.087Z,7.84
2023-04-16T07:31:31.842Z,7.83
2023-04-16T07:34:02.248Z,7.84
2023-04-16T07:36:33.148Z,7.98
2023-04-16T07:39:03.568Z,8.21
2023-04-16T07:41:34.231Z,8.21
2023-04-16T07:44:04.303Z,8.24
2023-04-16T07:46:45.652Z,8.34
2023-04-16T07:49:05.797Z,8.28
2023-04-16T07:51:36.174Z,8.22
2023-04-16T07:54:06.688Z,8.37
2023-04-16T07:56:37.420Z,8.25
2023-04-16T07:59:21.108Z,8.54
2023-04-16T08:01:38.419Z,8.58
2023-04-16T08:04:09.380Z,8.73
2023-04-16T08:06:39.475Z,8.67
2023-04-16T08:09:10.402Z,8.76
2023-04-16T08:11:40.783Z,8.88
2023-04-16T08:14:11.211Z,8.90
2023-04-16T08:16:41.233Z,8.96
2023-04-16T08:19:12.146Z,9.01
2023-04-16T08:21:42.644Z,9.14
2023-04-16T08:24:12.700Z,9.06
2023-04-16T08:26:43.417Z,9.03
2023-04-16T08:29:13.658Z,9.00
2023-04-16T08:31:43.746Z,9.08
2023-04-16T08:34:14.501Z,9.31
2023-04-16T08:36:44.939Z,9.47
2023-04-16T08:39:15.351Z,9.51
2023-04-16T08:41:46.047Z,9.58
2023-04-16T08:44:16.122Z,9.66
2023-04-16T08:46:46.331Z,9.59
2023-04-16T08:49:16.411Z,9.76
2023-04-16T08:51:46.710Z,9.48
2023-04-16T08:54:17.250Z,9.55
2023-04-16T08:56:48.068Z,9.61
2023-04-16T08:59:18.640Z,9.83
2023-04-16T09:01:49.019Z,9.83
2023-04-16T09:04:19.984Z,9.99
2023-04-16T09:06:49.885Z,10.01
2023-04-16T09:09:19.978Z,10.10
2023-04-16T09:11:50.511Z,10.13
2023-04-16T09:14:20.853Z,10.10
2023-04-16T09:16:51.149Z,10.05
2023-04-16T09:19:21.417Z,9.95
2023-04-16T09:21:51.697Z,10.02
2023-04-16T09:24:22.459Z,10.14
2023-04-16T09:26:53.090Z,10.25
2023-04-16T09:29:23.418Z,10.16
2023-04-16T09:31:54.161Z,10.36
2023-04-16T09:34:24.248Z,10.26
2023-04-16T09:36:54.709Z,10.51
2023-04-16T09:39:25.442Z,10.50
2023-04-16T09:41:56.099Z,10.43
2023-04-16T09:44:26.438Z,10.52
2023-04-16T09:46:57.004Z,10.39
2023-04-16T09:49:27.834Z,10.42
2023-04-16T09:51:58.263Z,10.38
2023-04-16T09:54:28.384Z,10.62
2023-04-16T09:56:59.160Z,10.67
2023-04-16T09:59:29.577Z,10.74
2023-04-16T10:02:14.698Z,10.79
2023-04-16T10:04:30.269Z,10.98
2023-04-16T10:07:00.841Z,10.95
2023-04-16T10:09:31.368Z,10.95
2023-04-16T10:12:01.959Z,10.99
2023-04-16T10:14:31.998Z,10.98
2023-04-16T10:17:02.497Z,10.95
2023-04-16T10:19:33.144Z,10.90
2023-04-16T10:22:03.983Z,10.99
2023-04-16T10:24:34.641Z,11.05
2023-04-16T10:27:04.886Z,11.30
2023-04-16T10:29:35.473Z,11.32
2023-04-16T10:32:05.532Z,11.46
2023-04-16T10:34:35.850Z,11.57
2023-04-16T10:37:06.372Z,11.36
2023-04-16T10:39:36.459Z,11.53
2023-04-16T10:42:07.084Z,11.62
2023-04-16T10:44:37.305Z,11.59
2023-04-16T10:47:07.350Z,11.62
2023-04-16T10:49:37.691Z,11.55
2023-04-16T10:52:08.517Z,11.65
2023-04-16T10:54:38.605Z,11.58
2023-04-16T10:57:08.782Z,11.74
2023-04-16T10:59:39.600Z,11.81
2023-04-16T11:02:10.235Z,11.54
2023-04-16T11:04:40.940Z,11.64
2023-04-16T11:07:10.767Z,11.57
2023-04-16T11:09:41.044Z,11.68
2023-04-16T11:12:11.306Z,11.79
2023-04-16T11:14:41.350Z,11.82
2023-04-16T11:17:11.482Z,11.92
2023-04-16T11:19:42.151Z,11.78
2023-04-16T11:22:12.841Z,11.91
2023-04-16T11:24:43.471Z,11.91
2023-04-16T11:27:13.941Z,11.98
2023-04-16T11:29:46.897Z,12.08
2023-04-16T11:32:15.170Z,12.17
2023-04-16T11:34:45.705Z,12.33
2023-04-16T11:37:15.884Z,12.19
2023-04-16T11:39:46.739Z,12.16
2023-04-16T11:42:16.818Z,12.22
2023-04-16T11:44:46.797Z,12.08
2023-04-16T11:47:17.139Z,12.23
2023-04-16T11:49:48.115Z,12.24
2023-04-16T11:52:17.952Z,12.31
2023-04-16T11:54:48.022Z,12.24
2023-04-16T11:57:18.058Z,12.28
2023-04-16T12:00:01.426Z,12.32
2023-04-16T12:02:18.951Z,12.37
2023-04-16T12:04:49.655Z,12.56
2023-04-16T12:07:19.847Z,12.50
2023-04-16T12:09:50.464Z,12.28
2023-04-16T12:12:21.019Z,12.47
2023-04-16T12:14:51.098Z,12.37
2023-04-16T12:17:21.808Z,12.19
2023-04-16T12:19:52.480Z,12.00
2023-04-16T12:22:22.872Z,12.14
2023-04-16T12:24:53.230Z,12.02
2023-04-16T12:27:23.677Z,12.03
2023-04-16T12:29:53.913Z,12.00
2023-04-16T12:32:24.043Z,12.13
2023-04-16T12:34:54.594Z,12.07
2023-04-16T12:37:24.691Z,11.88
2023-04-16T12:39:55.044Z,12.05
2023-04-16T12:42:25.757Z,12.03
2023-04-16T12:44:56.573Z,12.09
2023-04-16T12:47:27.308Z,12.21
2023-04-16T12:49:58.110Z,12.24
2023-04-16T12:52:28.996Z,12.36
2023-04-16T12:54:59.267Z,12.41
2023-04-16T12:57:30.049Z,12.43
2023-04-16T13:00:00.091Z,12.54
2023-04-16T13:02:30.399Z,12.58
2023-04-16T13:05:01.027Z,12.62
2023-04-16T13:07:31.199Z,12.51
2023-04-16T13:10:01.398Z,12.31
2023-04-16T13:12:31.407Z,12.58
2023-04-16T13:15:01.987Z,12.58
2023-04-16T13:17:32.085Z,12.66
2023-04-16T13:20:02.452Z,12.65
2023-04-16T13:22:33.039Z,12.62
2023-04-16T13:25:03.561Z,12.86
2023-04-16T13:27:33.775Z,12.71
2023-04-16T13:30:04.352Z,12.44
2023-04-16T13:32:34.916Z,12.52
2023-04-16T13:35:05.770Z,12.23
2023-04-16T13:37:35.880Z,12.30
2023-04-16T13:40:06.505Z,12.39
2023-04-16T13:42:36.849Z,12.35
2023-04-16T13:45:07.476Z,12.31
2023-04-16T13:47:38.113Z,12.50
2023-04-16T13:50:08.211Z,12.54
2023-04-16T13:52:38.733Z,12.60
2023-04-16T13:55:09.632Z,12.51
2023-04-16T13:57:39.598Z,12.56
2023-04-16T14:00:12.658Z,12.84
2023-04-16T14:02:40.734Z,12.84
2023-04-16T14:05:11.090Z,12.84
2023-04-16T14:07:41.782Z,13.04
2023-04-16T14:10:12.593Z,13.06
2023-04-16T14:12:43.166Z,13.24
2023-04-16T14:15:13.505Z,13.10
2023-04-16T14:17:43.710Z,13.20
2023-04-16T14:20:13.946Z,13.29
2023-04-16T14:22:43.966Z,13.35
2023-04-16T14:25:14.274Z,13.42
2023-04-16T14:27:44.395Z,13.43
2023-04-16T14:30:15.161Z,13.46
2023-04-16T14:32:45.936Z,13.29
2023-04-16T14:35:16.523Z,13.35
2023-04-16T14:37:47.245Z,13.48
2023-04-16T14:40:17.766Z,13.42
2023-04-16T14:42:48.508Z,13.48
2023-04-16T14:45:18.542Z,13.40
2023-04-16T14:47:48.554Z,13.38
2023-04-16T14:50:19.048Z,13.37
2023-04-16T14:52:49.830Z,13.41
2023-04-16T14:55:20.148Z,13.32
2023-04-16T14:57:50.826Z,13.33
2023-04-16T15:00:21.116Z,13.30
2023-04-16T15:02:51.699Z,13.19
2023-04-16T15:05:22.125Z,13.30
2023-04-16T15:07:52.561Z,13.48
2023-04-16T15:10:22.606Z,13.52
2023-04-16T15:12:52.821Z,13.18
2023-04-16T15:15:23.688Z,13.10
2023-04-16T15:17:54.161Z,13.10
2023-04-16T15:20:24.617Z,13.24
2023-04-16T15:22:55.045Z,13.07
2023-04-16T15:25:25.823Z,13.18
2023-04-16T15:27:56.055Z,13.01
2023-04-16T15:30:26.239Z,13.09
2023-04-16T15:32:56.486Z,13.22
2023-04-16T15:35:26.780Z,13.03
2023-04-16T15:37:57.237Z,13.15
2023-04-16T15:40:28.046Z,13.08
2023-04-16T15:42:58.750Z,13.11
2023-04-16T15:45:29.315Z,13.28
2023-04-16T15:47:59.537Z,13.12
2023-04-16T15:50:30.344Z,13.19
2023-04-16T15:53:00.553Z,13.27
2023-04-16T15:55:30.574Z,13.19
2023-04-16T15:58:00.655Z,12.84
2023-04-16T16:00:31.407Z,12.65
2023-04-16T16:03:02.102Z,12.63
2023-04-16T16:05:32.117Z,12.54
2023-04-16T16:08:02.908Z,12.32
2023-04-16T16:10:33.123Z,12.64
2023-04-16T16:13:03.588Z,12.58
2023-04-16T16:15:33.848Z,12.72
2023-04-16T16:18:04.058Z,12.55
2023-04-16T16:20:34.751Z,12.52
2023-04-16T16:23:05.363Z,12.33
2023-04-16T16:25:35.565Z,12.41
2023-04-16T16:28:06.492Z,12.31
2023-04-16T16:30:36.683Z,12.26
2023-04-16T16:33:07.621Z,12.37
2023-04-16T16:35:38.035Z,12.31
2023-04-16T16:38:08.795Z,12.34
2023-04-16T16:40:39.615Z,12.18
2023-04-16T16:43:09.913Z,12.12
2023-04-16T16:45:40.384Z,12.25
2023-04-16T16:48:11.182Z,12.43
2023-04-16T16:50:41.770Z,12.44
2023-04-16T16:53:12.191Z,12.30
2023-04-16T16:55:42.759Z,12.46
2023-04-16T16:58:13.012Z,12.30
2023-04-16T17:00:43.534Z,12.20
2023-04-16T17:03:13.980Z,12.18
2023-04-16T17:05:44.072Z,12.26
2023-04-16T17:08:14.455Z,12.26
2023-04-16T17:10:45.206Z,12.06
2023-04-16T17:13:15.212Z,12.16
2023-04-16T17:15:45.419Z,12.11
2023-04-16T17:18:15.959Z,12.22
2023-04-16T17:20:46.552Z,12.27
2023-04-16T17:23:16.994Z,12.27
2023-04-16T17:25:47.781Z,12.25
2023-04-16T17:28:18.350Z,12.23
2023-04-16T17:30:49.235Z,12.32
2023-04-16T17:33:19.875Z,12.32
2023-04-16T17:35:49.914Z,12.29
2023-04-16T17:38:20.120Z,12.43
2023-04-16T17:40:50.614Z,12.29
2023-04-16T17:43:21.084Z,12.34
2023-04-16T17:45:51.913Z,12.31
2023-04-16T17:48:22.660Z,12.17
2023-04-16T17:50:52.778Z,12.15
2023-04-16T17:53:22.985Z,11.99
2023-04-16T17:55:56.568Z,12.00
2023-04-16T17:58:24.323Z,11.77
2023-04-16T18:00:54.568Z,11.81
2023-04-16T18:03:25.511Z,11.88
2023-04-16T18:05:55.696Z,11.61
2023-04-16T18:08:26.156Z,11.66
2023-04-16T18:10:56.412Z,11.60
2023-04-16T18:13:26.700Z,11.74
2023-04-16T18:15:56.998Z,11.63
2023-04-16T18:18:27.211Z,11.62
2023-04-16T18:20:57.942Z,11.68
2023-04-16T18:23:28.637Z,11.75
2023-04-16T18:25:59.172Z,11.70
2023-04-16T18:28:29.383Z,11.80
2023-04-16T18:30:59.503Z,11.80
2023-04-16T18:33:50.095Z,11.72
2023-04-16T18:36:00.337Z,11.64
2023-04-16T18:38:30.610Z,11.47
2023-04-16T18:41:01.397Z,11.53
2023-04-16T18:43:31.377Z,11.37
2023-04-16T18:46:02.139Z,11.39
2023-04-16T18:48:32.787Z,11.31
2023-04-16T18:51:03.343Z,11.21
2023-04-16T18:53:33.607Z,11.16
2023-04-16T18:56:03.829Z,11.22
2023-04-16T18:58:33.981Z,11.24
2023-04-16T19:01:04.038Z,11.11
2023-04-16T19:03:34.077Z,11.09
2023-04-16T19:06:04.925Z,11.09
2023-04-16T19:08:35.032Z,11.11
2023-04-16T19:11:05.863Z,11.10
2023-04-16T19:13:36.039Z,11.03
2023-04-16T19:16:06.362Z,11.02
2023-04-16T19:18:36.508Z,10.95
2023-04-16T19:21:06.689Z,10.89
2023-04-16T19:23:37.319Z,11.08
2023-04-16T19:26:07.850Z,11.14
2023-04-16T19:28:38.008Z,11.24
2023-04-16T19:31:08.694Z,11.13
2023-04-16T19:33:39.000Z,11.13
2023-04-16T19:36:09.728Z,10.82
2023-04-16T19:38:40.260Z,10.65
2023-04-16T19:41:10.575Z,10.68
2023-04-16T19:43:40.755Z,10.51
2023-04-16T19:46:10.839Z,10.31
2023-04-16T19:48:40.887Z,10.37
2023-04-16T19:51:11.356Z,10.20
2023-04-16T19:53:41.937Z,9.98
2023-04-16T19:56:12.009Z,9.98
2023-04-16T19:58:42.106Z,10.19
2023-04-16T20:01:12.792Z,10.01
2023-04-16T20:03:43.069Z,9.98
2023-04-16T20:06:13.210Z,9.85
2023-04-16T20:08:43.988Z,10.00
2023-04-16T20:11:14.633Z,9.93
2023-04-16T20:13:45.166Z,10.14
2023-04-16T20:16:16.098Z,9.94
2023-04-16T20:18:46.540Z,10.02
2023-04-16T20:21:17.201Z,10.18
2023-04-16T20:23:47.224Z,10.00
2023-04-16T20:26:17.362Z,10.10
2023-04-16T20:28:47.703Z,10.21
2023-04-16T20:31:17.969Z,10.26
2023-04-16T20:33:48.309Z,10.24
2023-04-16T20:36:18.914Z,10.17
2023-04-16T20:38:50.779Z,10.25
2023-04-16T20:41:20.196Z,9.95
2023-04-16T20:43:50.310Z,9.82
2023-04-16T20:46:23.263Z,9.74
2023-04-16T20:48:51.885Z,9.53
2023-04-16T20:51:22.103Z,9.33
2023-04-16T20:53:52.139Z,9.30
2023-04-16T20:56:22.722Z,9.26
2023-04-16T20:58:53.119Z,9.11
2023-04-16T21:01:23.420Z,9.09
2023-04-16T21:03:54.008Z,9.10
2023-04-16T21:06:24.140Z,9.16
2023-04-16T21:08:54.187Z,9.25
2023-04-16T21:11:24.373Z,9.30
2023-04-16T21:13:54.847Z,9.40
2023-04-16T21:16:25.207Z,9.15
2023-04-16T21:18:56.120Z,9.20
2023-04-16T21:21:26.642Z,9.19
2023-04-16T21:23:57.466Z,9.07
2023-04-16T21:26:27.731Z,9.14
2023-04-16T21:28:58.627Z,9.21
2023-04-16T21:31:29.315Z,9.15
2023-04-16T21:33:59.879Z,9.21
2023-04-16T21:36:30.198Z,8.98
2023-04-16T21:39:00.750Z,9.01
2023-04-16T21:41:30.943Z,9.04
2023-04-16T21:44:01.529Z,9.09
2023-04-16T21:46:31.652Z,8.98
2023-04-16T21:49:02.458Z,9.06
2023-04-16T21:51:33.277Z,8.79
2023-04-16T21:54:03.293Z,8.95
2023-04-16T21:56:33.525Z,8.92
2023-04-16T21:59:04.234Z,9.01
2023-04-16T22:01:35.059Z,8.80
2023-04-16T22:04:04.961Z,9.03
2023-04-16T22:06:35.285Z,9.09
2023-04-16T22:09:05.877Z,8.83
2023-04-16T22:11:36.696Z,8.82
2023-04-16T22:14:06.946Z,8.77
2023-04-16T22:16:37.105Z,8.93
2023-04-16T22:19:07.152Z,8.90
2023-04-16T22:21:37.283Z,8.94
2023-04-16T22:24:07.515Z,8.95
2023-04-16T22:26:37.663Z,8.92
2023-04-16T22:29:08.443Z,8.90
2023-04-16T22:31:38.434Z,8.89
2023-04-16T22:34:08.478Z,8.85
2023-04-16T22:36:38.811Z,8.91
2023-04-16T22:39:09.816Z,8.81
2023-04-16T22:41:39.703Z,8.91
2023-04-16T22:44:10.417Z,8.69
2023-04-16T22:46:40.622Z,8.82
2023-04-16T22:49:10.743Z,8.82
2023-04-16T22:51:40.735Z,8.70
2023-04-16T22:54:12.587Z,8.86
2023-04-16T22:56:41.831Z,8.88
2023-04-16T22:59:12.268Z,8.97
2023-04-16T23:01:42.753Z,8.99
2023-04-16T23:04:13.252Z,8.91
2023-04-16T23:06:43.953Z,8.96
2023-04-16T23:09:14.488Z,9.00
2023-04-16T23:11:45.002Z,9.06
2023-04-16T23:14:16.714Z,9.07
2023-04-16T23:16:45.130Z,9.12
2023-04-16T23:19:15.246Z,9.10
2023-04-16T23:21:45.601Z,9.08
2023-04-16T23:24:16.221Z,9.10
2023-04-16T23:26:46.907Z,9.09
2023-04-16T23:29:17.008Z,9.06
2023-04-16T23:31:47.721Z,8.89
2023-04-16T23:34:17.611Z,8.88
2023-04-16T23:36:47.660Z,8.86
2023-04-16T23:39:17.850Z,8.78
2023-04-16T23:41:48.154Z,8.83
2023-04-16T23:44:18.401Z,8.82
2023-04-16T23:46:49.020Z,8.80
2023-04-16T23:49:19.553Z,8.79
2023-04-16T23:51:49.613Z,8.72
2023-04-16T23:54:19.781Z,8.70
2023-04-16T23:56:49.846Z,8.56
2023-04-16T23:59:20.135Z,8.60
